TAF LEJR
LEJR 090800Z 0909/1009 31007KT CAVOK TX19/0915Z TN08/1007Z=
METAR LEJR
LEJR 091030Z 28003KT 210V350 CAVOK 13/09 Q1029=
LEJR 091000Z VRB02KT CAVOK 11/08 Q1029=
LEJR 090930Z VRB02KT CAVOK 09/08 Q1029=
LEJR 090900Z 08002KT CAVOK 07/07 Q1029=
LEJR 090830Z VRB02KT CAVOK 06/06 Q1029=
WC LEJR
WS LEJR
WV LEJR